ACA466 CYYZ-CYOW
Flight info
| Callsign | ACA466 |
|---|---|
| Flight time | 0h 42m |
| Altitude | 27000 |
| Route | VERDO7 ELSUB CAPTL5 |
| Aircraft | A321/M-SDE3FGHIRWY/LB1 |
Departure
| Time | 2026-05-07 00:55 |
|---|---|
| Airport | Toronto Pearson International Airport (CYYZ) |
Arrival
| Time | 2026-05-07 01:37 |
|---|---|
| Airport | Ottawa Macdonald-Cartier International Airport (CYOW) |
| Time | Latitude | Longitude | Altitude | Speed | Heading |
|---|---|---|---|---|---|
| 2026-05-07 00:24 | 43.68099 | -79.61544 | 570 ft | 0 kts | 108° |
| 2026-05-07 00:40 | 43.68103 | -79.61560 | 570 ft | 2 kts | 108° |
| 2026-05-07 00:40 | 43.68108 | -79.61580 | 570 ft | 2 kts | 108° |
| 2026-05-07 00:41 | 43.68113 | -79.61600 | 570 ft | 2 kts | 108° |
| 2026-05-07 00:41 | 43.68117 | -79.61619 | 570 ft | 2 kts | 108° |
| 2026-05-07 00:41 | 43.68122 | -79.61638 | 570 ft | 2 kts | 108° |
| 2026-05-07 00:41 | 43.68126 | -79.61658 | 570 ft | 2 kts | 108° |
| 2026-05-07 00:42 | 43.68129 | -79.61671 | 570 ft | 1 kts | 108° |
| 2026-05-07 00:42 | 43.68132 | -79.61691 | 570 ft | 2 kts | 87° |
| 2026-05-07 00:42 | 43.68130 | -79.61710 | 571 ft | 2 kts | 70° |
| 2026-05-07 00:42 | 43.68123 | -79.61729 | 571 ft | 1 kts | 51° |
| 2026-05-07 00:43 | 43.68119 | -79.61736 | 571 ft | 1 kts | 45° |
| 2026-05-07 00:43 | 43.68117 | -79.61738 | 571 ft | 0 kts | 46° |
| 2026-05-07 00:45 | 43.68118 | -79.61737 | 571 ft | 1 kts | 45° |
| 2026-05-07 00:46 | 43.68132 | -79.61732 | 571 ft | 3 kts | 2° |
| 2026-05-07 00:46 | 43.68161 | -79.61750 | 571 ft | 5 kts | 309° |
| 2026-05-07 00:46 | 43.68162 | -79.61801 | 572 ft | 6 kts | 245° |
| 2026-05-07 00:46 | 43.68131 | -79.61855 | 572 ft | 8 kts | 226° |
| 2026-05-07 00:47 | 43.68080 | -79.61928 | 572 ft | 11 kts | 226° |
| 2026-05-07 00:47 | 43.68041 | -79.61981 | 573 ft | 3 kts | 203° |
| 2026-05-07 00:47 | 43.68009 | -79.61987 | 573 ft | 5 kts | 193° |
| 2026-05-07 00:47 | 43.67972 | -79.62019 | 572 ft | 8 kts | 222° |
| 2026-05-07 00:48 | 43.67921 | -79.62092 | 571 ft | 12 kts | 226° |
| 2026-05-07 00:48 | 43.67863 | -79.62148 | 570 ft | 9 kts | 172° |
| 2026-05-07 00:48 | 43.67802 | -79.62087 | 570 ft | 12 kts | 137° |
| 2026-05-07 00:48 | 43.67738 | -79.62005 | 570 ft | 13 kts | 136° |
| 2026-05-07 00:49 | 43.67667 | -79.61912 | 568 ft | 15 kts | 136° |
| 2026-05-07 00:49 | 43.67585 | -79.61805 | 566 ft | 17 kts | 137° |
| 2026-05-07 00:49 | 43.67493 | -79.61688 | 563 ft | 18 kts | 136° |
| 2026-05-07 00:49 | 43.67394 | -79.61557 | 561 ft | 20 kts | 135° |
| 2026-05-07 00:50 | 43.67300 | -79.61434 | 559 ft | 17 kts | 136° |
| 2026-05-07 00:50 | 43.67228 | -79.61337 | 558 ft | 8 kts | 121° |
| 2026-05-07 00:50 | 43.67243 | -79.61247 | 556 ft | 11 kts | 55° |
| 2026-05-07 00:50 | 43.67289 | -79.61157 | 558 ft | 11 kts | 52° |
| 2026-05-07 00:51 | 43.67338 | -79.61069 | 558 ft | 12 kts | 52° |
| 2026-05-07 00:51 | 43.67398 | -79.60959 | 558 ft | 15 kts | 53° |
| 2026-05-07 00:51 | 43.67464 | -79.60843 | 559 ft | 15 kts | 49° |
| 2026-05-07 00:51 | 43.67536 | -79.60735 | 559 ft | 16 kts | 46° |
| 2026-05-07 00:52 | 43.67615 | -79.60620 | 558 ft | 16 kts | 45° |
| 2026-05-07 00:52 | 43.67699 | -79.60500 | 557 ft | 17 kts | 46° |
| 2026-05-07 00:52 | 43.67784 | -79.60375 | 556 ft | 18 kts | 46° |
| 2026-05-07 00:52 | 43.67873 | -79.60246 | 556 ft | 17 kts | 46° |
| 2026-05-07 00:53 | 43.67957 | -79.60123 | 555 ft | 18 kts | 46° |
| 2026-05-07 00:53 | 43.68033 | -79.60013 | 554 ft | 7 kts | 49° |
| 2026-05-07 00:53 | 43.68019 | -79.59953 | 553 ft | 9 kts | 133° |
| 2026-05-07 00:53 | 43.67963 | -79.59877 | 550 ft | 13 kts | 136° |
| 2026-05-07 00:54 | 43.67898 | -79.59795 | 547 ft | 8 kts | 147° |
| 2026-05-07 00:54 | 43.67840 | -79.59818 | 547 ft | 10 kts | 224° |
| 2026-05-07 00:54 | 43.67750 | -79.59946 | 548 ft | 42 kts | 226° |
| 2026-05-07 00:54 | 43.67379 | -79.60489 | 551 ft | 111 kts | 226° |
| 2026-05-07 00:55 | 43.66710 | -79.61465 | 572 ft | 164 kts | 229° |
| 2026-05-07 00:55 | 43.65962 | -79.62553 | 1300 ft | 153 kts | 229° |
| 2026-05-07 00:55 | 43.65194 | -79.63530 | 1925 ft | 154 kts | 225° |
| 2026-05-07 00:55 | 43.64375 | -79.64521 | 2450 ft | 157 kts | 224° |
| 2026-05-07 00:56 | 43.63525 | -79.65540 | 2782 ft | 168 kts | 224° |
| 2026-05-07 00:56 | 43.62614 | -79.66629 | 3133 ft | 179 kts | 224° |
| 2026-05-07 00:56 | 43.61651 | -79.67780 | 3503 ft | 190 kts | 224° |
| 2026-05-07 00:56 | 43.60623 | -79.69009 | 3902 ft | 200 kts | 222° |
| 2026-05-07 00:57 | 43.59289 | -79.69791 | 4156 ft | 226 kts | 187° |
| 2026-05-07 00:57 | 43.57678 | -79.69377 | 4466 ft | 253 kts | 154° |
| 2026-05-07 00:57 | 43.56285 | -79.67754 | 4854 ft | 274 kts | 135° |
| 2026-05-07 00:57 | 43.55000 | -79.65775 | 5474 ft | 280 kts | 135° |
| 2026-05-07 00:58 | 43.53714 | -79.63802 | 6207 ft | 280 kts | 136° |
| 2026-05-07 00:58 | 43.52403 | -79.61835 | 6929 ft | 281 kts | 137° |
| 2026-05-07 00:58 | 43.51142 | -79.59779 | 7619 ft | 287 kts | 124° |
| 2026-05-07 00:58 | 43.50574 | -79.57125 | 8260 ft | 298 kts | 92° |
| 2026-05-07 00:59 | 43.51525 | -79.51546 | 9522 ft | 306 kts | 76° |
| 2026-05-07 00:59 | 43.52126 | -79.48699 | 10108 ft | 310 kts | 77° |
| 2026-05-07 00:59 | 43.52700 | -79.45833 | 10517 ft | 320 kts | 77° |
| 2026-05-07 01:00 | 43.53392 | -79.42842 | 10784 ft | 336 kts | 72° |
| 2026-05-07 01:00 | 43.54325 | -79.39832 | 11046 ft | 352 kts | 66° |
| 2026-05-07 01:00 | 43.55444 | -79.36736 | 11308 ft | 367 kts | 64° |
| 2026-05-07 01:00 | 43.56628 | -79.33534 | 11575 ft | 381 kts | 65° |
| 2026-05-07 01:01 | 43.57825 | -79.30276 | 12041 ft | 387 kts | 65° |
| 2026-05-07 01:01 | 43.59038 | -79.26961 | 12627 ft | 389 kts | 65° |
| 2026-05-07 01:01 | 43.60261 | -79.23601 | 13167 ft | 393 kts | 66° |
| 2026-05-07 01:01 | 43.61486 | -79.20222 | 13682 ft | 397 kts | 66° |
| 2026-05-07 01:02 | 43.62728 | -79.16793 | 14185 ft | 401 kts | 66° |
| 2026-05-07 01:02 | 43.63958 | -79.13389 | 14647 ft | 405 kts | 66° |
| 2026-05-07 01:02 | 43.65189 | -79.09975 | 15089 ft | 410 kts | 66° |
| 2026-05-07 01:02 | 43.66452 | -79.06468 | 15532 ft | 414 kts | 66° |
| 2026-05-07 01:03 | 43.67730 | -79.02915 | 15967 ft | 419 kts | 66° |
| 2026-05-07 01:03 | 43.68984 | -78.99425 | 16383 ft | 423 kts | 66° |
| 2026-05-07 01:03 | 43.70295 | -78.95773 | 16805 ft | 427 kts | 66° |
| 2026-05-07 01:03 | 43.71609 | -78.92104 | 17224 ft | 431 kts | 66° |
| 2026-05-07 01:04 | 43.72940 | -78.88385 | 17665 ft | 434 kts | 67° |
| 2026-05-07 01:04 | 43.74270 | -78.84663 | 18105 ft | 437 kts | 67° |
| 2026-05-07 01:04 | 43.75628 | -78.80855 | 18533 ft | 440 kts | 67° |
| 2026-05-07 01:04 | 43.76976 | -78.77073 | 18948 ft | 443 kts | 67° |
| 2026-05-07 01:05 | 43.78333 | -78.73221 | 19447 ft | 443 kts | 68° |
| 2026-05-07 01:05 | 43.79653 | -78.69428 | 20000 ft | 442 kts | 68° |
| 2026-05-07 01:05 | 43.80982 | -78.65585 | 20522 ft | 441 kts | 68° |
| 2026-05-07 01:05 | 43.82293 | -78.61788 | 20993 ft | 441 kts | 68° |
| 2026-05-07 01:06 | 43.83627 | -78.57922 | 21467 ft | 441 kts | 69° |
| 2026-05-07 01:06 | 43.84932 | -78.54131 | 21932 ft | 441 kts | 69° |
| 2026-05-07 01:06 | 43.86261 | -78.50269 | 22386 ft | 441 kts | 69° |
| 2026-05-07 01:06 | 43.87575 | -78.46446 | 22837 ft | 440 kts | 69° |
| 2026-05-07 01:07 | 43.88881 | -78.42643 | 23272 ft | 440 kts | 69° |
| 2026-05-07 01:07 | 43.90193 | -78.38817 | 23703 ft | 439 kts | 69° |
| 2026-05-07 01:07 | 43.91492 | -78.35019 | 24122 ft | 439 kts | 69° |
| 2026-05-07 01:07 | 43.92793 | -78.31207 | 24516 ft | 439 kts | 70° |
| 2026-05-07 01:08 | 43.94097 | -78.27371 | 24901 ft | 439 kts | 70° |
| 2026-05-07 01:08 | 43.95383 | -78.23590 | 25275 ft | 438 kts | 70° |
| 2026-05-07 01:08 | 43.96692 | -78.19739 | 25664 ft | 438 kts | 71° |
| 2026-05-07 01:08 | 43.97972 | -78.15971 | 26025 ft | 437 kts | 71° |
| 2026-05-07 01:09 | 43.99276 | -78.12128 | 26382 ft | 437 kts | 71° |
| 2026-05-07 01:09 | 44.00568 | -78.08315 | 26728 ft | 436 kts | 71° |
| 2026-05-07 01:09 | 44.01852 | -78.04520 | 26939 ft | 437 kts | 71° |
| 2026-05-07 01:09 | 44.03148 | -78.00675 | 26952 ft | 445 kts | 71° |
| 2026-05-07 01:10 | 44.04411 | -77.96922 | 26953 ft | 448 kts | 71° |
| 2026-05-07 01:10 | 44.05746 | -77.92966 | 26951 ft | 448 kts | 71° |
| 2026-05-07 01:10 | 44.07062 | -77.89058 | 26950 ft | 448 kts | 71° |
| 2026-05-07 01:10 | 44.08374 | -77.85156 | 26950 ft | 447 kts | 71° |
| 2026-05-07 01:11 | 44.09681 | -77.81265 | 26951 ft | 448 kts | 71° |
| 2026-05-07 01:11 | 44.11000 | -77.77339 | 26946 ft | 447 kts | 71° |
| 2026-05-07 01:11 | 44.12333 | -77.73400 | 26948 ft | 447 kts | 71° |
| 2026-05-07 01:11 | 44.13638 | -77.69524 | 26950 ft | 447 kts | 71° |
| 2026-05-07 01:12 | 44.14954 | -77.65589 | 26951 ft | 447 kts | 71° |
| 2026-05-07 01:12 | 44.16263 | -77.61659 | 26951 ft | 446 kts | 71° |
| 2026-05-07 01:12 | 44.17572 | -77.57719 | 26951 ft | 446 kts | 71° |
| 2026-05-07 01:12 | 44.18878 | -77.53822 | 26950 ft | 448 kts | 68° |
| 2026-05-07 01:13 | 44.20487 | -77.50150 | 26945 ft | 455 kts | 57° |
| 2026-05-07 01:13 | 44.22613 | -77.46857 | 26948 ft | 459 kts | 45° |
| 2026-05-07 01:13 | 44.25040 | -77.43881 | 26951 ft | 460 kts | 41° |
| 2026-05-07 01:13 | 44.27480 | -77.41048 | 26951 ft | 460 kts | 41° |
| 2026-05-07 01:14 | 44.29942 | -77.38181 | 26951 ft | 460 kts | 41° |
| 2026-05-07 01:14 | 44.32344 | -77.35340 | 26951 ft | 459 kts | 42° |
| 2026-05-07 01:14 | 44.34771 | -77.32426 | 26950 ft | 459 kts | 43° |
| 2026-05-07 01:14 | 44.37157 | -77.29522 | 26951 ft | 460 kts | 44° |
| 2026-05-07 01:15 | 44.39582 | -77.26565 | 26950 ft | 459 kts | 44° |
| 2026-05-07 01:15 | 44.41947 | -77.23686 | 26747 ft | 453 kts | 44° |
| 2026-05-07 01:15 | 44.44284 | -77.20839 | 26496 ft | 444 kts | 43° |
| 2026-05-07 01:15 | 44.46598 | -77.18019 | 26245 ft | 440 kts | 43° |
| 2026-05-07 01:16 | 44.48882 | -77.15241 | 25990 ft | 438 kts | 43° |
| 2026-05-07 01:16 | 44.51196 | -77.12423 | 25711 ft | 435 kts | 43° |
| 2026-05-07 01:16 | 44.53474 | -77.09648 | 25412 ft | 435 kts | 43° |
| 2026-05-07 01:16 | 44.55746 | -77.06873 | 24947 ft | 437 kts | 43° |
| 2026-05-07 01:17 | 44.58034 | -77.04073 | 24415 ft | 438 kts | 43° |
| 2026-05-07 01:17 | 44.60300 | -77.01300 | 23876 ft | 439 kts | 43° |
| 2026-05-07 01:17 | 44.62609 | -76.98471 | 23324 ft | 440 kts | 44° |
| 2026-05-07 01:17 | 44.64796 | -76.95509 | 22781 ft | 439 kts | 49° |
| 2026-05-07 01:18 | 44.66766 | -76.92278 | 22249 ft | 436 kts | 56° |
| 2026-05-07 01:18 | 44.68568 | -76.88879 | 21704 ft | 435 kts | 58° |
| 2026-05-07 01:18 | 44.70342 | -76.85403 | 21154 ft | 435 kts | 58° |
| 2026-05-07 01:18 | 44.72091 | -76.81966 | 20616 ft | 435 kts | 58° |
| 2026-05-07 01:19 | 44.73852 | -76.78522 | 20069 ft | 434 kts | 57° |
| 2026-05-07 01:19 | 44.75610 | -76.75099 | 19512 ft | 434 kts | 57° |
| 2026-05-07 01:19 | 44.77370 | -76.71681 | 18939 ft | 434 kts | 57° |
| 2026-05-07 01:19 | 44.79128 | -76.68269 | 18361 ft | 434 kts | 57° |
| 2026-05-07 01:20 | 44.80905 | -76.64824 | 17772 ft | 433 kts | 56° |
| 2026-05-07 01:20 | 44.82660 | -76.61415 | 17169 ft | 433 kts | 56° |
| 2026-05-07 01:20 | 44.84423 | -76.57990 | 16562 ft | 433 kts | 56° |
| 2026-05-07 01:20 | 44.86189 | -76.54554 | 16084 ft | 428 kts | 56° |
| 2026-05-07 01:21 | 44.87905 | -76.51213 | 15635 ft | 423 kts | 56° |
| 2026-05-07 01:21 | 44.89616 | -76.47874 | 15172 ft | 419 kts | 56° |
| 2026-05-07 01:21 | 44.91262 | -76.44653 | 14719 ft | 415 kts | 56° |
| 2026-05-07 01:21 | 44.92938 | -76.41374 | 14254 ft | 412 kts | 56° |
| 2026-05-07 01:22 | 44.94611 | -76.38105 | 13795 ft | 408 kts | 54° |
| 2026-05-07 01:22 | 44.96307 | -76.34951 | 13353 ft | 404 kts | 54° |
| 2026-05-07 01:22 | 44.98029 | -76.31815 | 12900 ft | 400 kts | 54° |
| 2026-05-07 01:22 | 44.99709 | -76.28753 | 12460 ft | 396 kts | 54° |
| 2026-05-07 01:23 | 45.01382 | -76.25692 | 12023 ft | 392 kts | 54° |
| 2026-05-07 01:23 | 45.03045 | -76.22646 | 11589 ft | 384 kts | 54° |
| 2026-05-07 01:23 | 45.04635 | -76.19729 | 11188 ft | 366 kts | 55° |
| 2026-05-07 01:23 | 45.06132 | -76.16975 | 10804 ft | 350 kts | 55° |
| 2026-05-07 01:24 | 45.07592 | -76.14285 | 10440 ft | 335 kts | 55° |
| 2026-05-07 01:24 | 45.08949 | -76.11784 | 10353 ft | 313 kts | 56° |
| 2026-05-07 01:24 | 45.10274 | -76.09332 | 10282 ft | 315 kts | 56° |
| 2026-05-07 01:24 | 45.11624 | -76.06846 | 10021 ft | 316 kts | 56° |
| 2026-05-07 01:25 | 45.12929 | -76.04445 | 9675 ft | 309 kts | 56° |
| 2026-05-07 01:25 | 45.14234 | -76.02036 | 9183 ft | 306 kts | 56° |
| 2026-05-07 01:25 | 45.15474 | -75.99734 | 8695 ft | 303 kts | 56° |
| 2026-05-07 01:25 | 45.16743 | -75.97378 | 8210 ft | 300 kts | 56° |
| 2026-05-07 01:26 | 45.18006 | -75.95033 | 7726 ft | 297 kts | 55° |
| 2026-05-07 01:26 | 45.19244 | -75.92735 | 7249 ft | 294 kts | 55° |
| 2026-05-07 01:26 | 45.20476 | -75.90447 | 6772 ft | 291 kts | 55° |
| 2026-05-07 01:26 | 45.21587 | -75.88099 | 6278 ft | 285 kts | 71° |
| 2026-05-07 01:27 | 45.21863 | -75.85398 | 5757 ft | 271 kts | 103° |
| 2026-05-07 01:27 | 45.21358 | -75.82914 | 5303 ft | 263 kts | 114° |
| 2026-05-07 01:27 | 45.20725 | -75.80455 | 4788 ft | 263 kts | 114° |
| 2026-05-07 01:27 | 45.20122 | -75.78034 | 4294 ft | 261 kts | 112° |
| 2026-05-07 01:28 | 45.19539 | -75.75612 | 4015 ft | 259 kts | 112° |
| 2026-05-07 01:28 | 45.19172 | -75.73093 | 3861 ft | 266 kts | 89° |
| 2026-05-07 01:28 | 45.19702 | -75.70576 | 3734 ft | 271 kts | 61° |
| 2026-05-07 01:28 | 45.20725 | -75.68333 | 3619 ft | 272 kts | 58° |
| 2026-05-07 01:29 | 45.21778 | -75.66107 | 3497 ft | 270 kts | 58° |
| 2026-05-07 01:29 | 45.22788 | -75.63930 | 3371 ft | 260 kts | 58° |
| 2026-05-07 01:29 | 45.23740 | -75.61841 | 3239 ft | 250 kts | 59° |
| 2026-05-07 01:29 | 45.24668 | -75.59787 | 3115 ft | 247 kts | 59° |
| 2026-05-07 01:30 | 45.25592 | -75.57733 | 3000 ft | 246 kts | 59° |
| 2026-05-07 01:30 | 45.26520 | -75.55669 | 2994 ft | 247 kts | 59° |
| 2026-05-07 01:30 | 45.27432 | -75.53637 | 2992 ft | 247 kts | 59° |
| 2026-05-07 01:30 | 45.28365 | -75.51559 | 2991 ft | 247 kts | 59° |
| 2026-05-07 01:31 | 45.29276 | -75.49528 | 2991 ft | 247 kts | 59° |
| 2026-05-07 01:31 | 45.30199 | -75.47469 | 2991 ft | 247 kts | 59° |
| 2026-05-07 01:31 | 45.31127 | -75.45398 | 2991 ft | 247 kts | 59° |
| 2026-05-07 01:31 | 45.32049 | -75.43339 | 2991 ft | 248 kts | 59° |
| 2026-05-07 01:32 | 45.33168 | -75.41523 | 2934 ft | 239 kts | 30° |
| 2026-05-07 01:32 | 45.34688 | -75.41016 | 2960 ft | 228 kts | 350° |
| 2026-05-07 01:32 | 45.36158 | -75.41788 | 3004 ft | 225 kts | 323° |
| 2026-05-07 01:32 | 45.37409 | -75.43000 | 3012 ft | 206 kts | 321° |
| 2026-05-07 01:33 | 45.38544 | -75.44092 | 2964 ft | 187 kts | 322° |
| 2026-05-07 01:33 | 45.39518 | -75.45126 | 2928 ft | 162 kts | 304° |
| 2026-05-07 01:33 | 45.39972 | -75.46526 | 3024 ft | 160 kts | 273° |
| 2026-05-07 01:33 | 45.39849 | -75.48042 | 2956 ft | 152 kts | 243° |
| 2026-05-07 01:34 | 45.39312 | -75.49322 | 2866 ft | 151 kts | 233° |
| 2026-05-07 01:34 | 45.38734 | -75.50571 | 2713 ft | 150 kts | 234° |
| 2026-05-07 01:34 | 45.38173 | -75.51802 | 2491 ft | 151 kts | 234° |
| 2026-05-07 01:34 | 45.37610 | -75.53048 | 2192 ft | 146 kts | 234° |
| 2026-05-07 01:35 | 45.37066 | -75.54256 | 2025 ft | 146 kts | 235° |
| 2026-05-07 01:35 | 45.36521 | -75.55469 | 1827 ft | 144 kts | 235° |
| 2026-05-07 01:35 | 45.35985 | -75.56660 | 1644 ft | 144 kts | 235° |
| 2026-05-07 01:35 | 45.35444 | -75.57862 | 1459 ft | 143 kts | 235° |
| 2026-05-07 01:36 | 45.34919 | -75.59068 | 1270 ft | 143 kts | 236° |
| 2026-05-07 01:36 | 45.34404 | -75.60278 | 1079 ft | 142 kts | 237° |
| 2026-05-07 01:36 | 45.33882 | -75.61455 | 889 ft | 142 kts | 235° |
| 2026-05-07 01:36 | 45.33342 | -75.62641 | 716 ft | 142 kts | 235° |
| 2026-05-07 01:37 | 45.32818 | -75.63806 | 541 ft | 140 kts | 236° |
| 2026-05-07 01:37 | 45.32300 | -75.64973 | 388 ft | 133 kts | 235° |
| 2026-05-07 01:37 | 45.31917 | -75.65819 | 383 ft | 60 kts | 237° |
| 2026-05-07 01:37 | 45.31766 | -75.66154 | 383 ft | 30 kts | 236° |
| 2026-05-07 01:38 | 45.31731 | -75.66283 | 383 ft | 10 kts | 294° |
| 2026-05-07 01:38 | 45.31773 | -75.66371 | 383 ft | 11 kts | 306° |
| 2026-05-07 01:38 | 45.31820 | -75.66463 | 383 ft | 9 kts | 303° |
| 2026-05-07 01:38 | 45.31842 | -75.66561 | 383 ft | 11 kts | 295° |
| 2026-05-07 01:39 | 45.31888 | -75.66658 | 383 ft | 12 kts | 306° |
| 2026-05-07 01:39 | 45.31937 | -75.66733 | 383 ft | 9 kts | 334° |
| 2026-05-07 01:39 | 45.32006 | -75.66766 | 383 ft | 11 kts | 341° |
| 2026-05-07 01:39 | 45.32058 | -75.66817 | 383 ft | 6 kts | 311° |
| 2026-05-07 01:40 | 45.32068 | -75.66832 | 383 ft | 1 kts | 311° |
| 2026-05-07 01:40 | 45.32078 | -75.66849 | 383 ft | 2 kts | 311° |
| 2026-05-07 01:40 | 45.32087 | -75.66855 | 383 ft | 0 kts | 21° |
| 2026-05-07 01:40 | 45.32098 | -75.66844 | 383 ft | 3 kts | 32° |
| 2026-05-07 01:41 | 45.32123 | -75.66820 | 383 ft | 5 kts | 36° |
| 2026-05-07 01:41 | 45.32147 | -75.66795 | 383 ft | 2 kts | 36° |
| 2026-05-07 01:41 | 45.32151 | -75.66791 | 383 ft | 0 kts | 36° |